< < Back
Terminal Aerodrome Forecast


Current Version              Previous Versions:   1  2  3  4  5  6  7  8  9  

Terminal Aerodrome Forecast

562
FTUS44 KBMX 262019 AAA
TAFMGM
TAF AMD
KMGM 262019Z 2620/2718 08005KT P6SM VCTS SCT060CB
     FM270300 VRB03KT P6SM SCT060 BKN070
     FM271500 29003KT P6SM SCT070 BKN100=

Latest METAR

529
SAUS80 KWBC 262100 RRA
MTRMGM
METAR KMGM 262053Z 09014KT 10SM BKN055 31/18 A2995 RMK AO2 LTG DSNT SE
SLP138 T03110183 55019


USA.gov is the U.S. government's official web portal to all federal, state and local government web resources and services.